Time;durP1;ratioP1;P1;durP2;ratioP2;P2;SDS_P1;SDS_P2;PMS_P1;PMS_P2;Temp;Humidity;BMP_temperature;BMP_pressure;BME280_temperature;BME280_humidity;BME280_pressure;Samples;Min_cycle;Max_cycle;Signal;HPM_P1;HPM_P2
2021/04/12 00:02:16;;;;;;;2.30;2.20;;;9.30;99.90;;;;;;5056462;28;20214;-77
2021/04/12 00:04:48;;;;;;;2.05;1.95;;;9.30;99.90;;;;;;5054435;28;20979;-77
2021/04/12 00:07:21;;;;;;;2.20;2.10;;;9.30;99.90;;;;;;5059872;28;20214;-77
2021/04/12 00:09:51;;;;;;;2.20;2.00;;;9.30;99.90;;;;;;5062429;28;20221;-77
2021/04/12 00:12:24;;;;;;;2.45;2.00;;;9.30;99.90;;;;;;5043153;28;20222;-78
2021/04/12 00:14:54;;;;;;;2.33;2.22;;;9.30;99.90;;;;;;5072653;22;20230;-68
2021/04/12 00:17:24;;;;;;;2.42;2.33;;;9.30;99.90;;;;;;4983197;28;20236;-68
2021/04/12 00:19:56;;;;;;;2.20;2.10;;;9.20;99.90;;;;;;4985181;28;20190;-67
2021/04/12 00:22:29;;;;;;;3.03;2.13;;;9.20;99.90;;;;;;4981943;28;20229;-70
2021/04/12 00:25:00;;;;;;;2.30;2.20;;;9.20;99.90;;;;;;4989201;28;20252;-68
2021/04/12 00:27:32;;;;;;;2.45;2.35;;;9.10;99.90;;;;;;4984200;28;20282;-68
2021/04/12 00:30:07;;;;;;;2.20;2.10;;;9.10;99.90;;;;;;4980716;28;20594;-67
2021/04/12 00:32:39;;;;;;;2.65;2.55;;;9.10;99.90;;;;;;4983346;28;20239;-68
2021/04/12 00:35:09;;;;;;;3.40;3.20;;;9.10;99.90;;;;;;4976999;28;20627;-68
2021/04/12 00:37:44;;;;;;;2.65;2.45;;;9.10;99.90;;;;;;4983594;28;20240;-67
2021/04/12 00:40:20;;;;;;;2.70;2.60;;;9.10;99.90;;;;;;4983495;28;20197;-68
2021/04/12 00:43:01;;;;;;;2.40;2.30;;;9.10;99.90;;;;;;4978328;28;20213;-68
2021/04/12 00:45:57;;;;;;;2.67;2.58;;;9.10;99.90;;;;;;4977664;28;20213;-69
2021/04/12 00:48:58;;;;;;;2.40;2.30;;;9.10;99.90;;;;;;4969416;28;20213;-69
2021/04/12 00:51:41;;;;;;;2.78;2.67;;;9.20;99.90;;;;;;4977796;28;20210;-71
2021/04/12 00:54:38;;;;;;;2.33;2.22;;;9.20;99.90;;;;;;4974307;28;20221;-70
2021/04/12 00:57:09;;;;;;;2.60;2.50;;;9.20;99.90;;;;;;4954029;28;20229;-68
2021/04/12 00:59:45;;;;;;;2.20;2.10;;;9.20;99.90;;;;;;4978392;28;20607;-68
2021/04/12 01:02:25;;;;;;;2.20;2.10;;;9.20;99.90;;;;;;4977644;28;20221;-69
2021/04/12 01:05:07;;;;;;;2.47;2.38;;;9.20;99.90;;;;;;4977449;28;20217;-68
2021/04/12 01:08:07;;;;;;;2.20;2.10;;;9.20;99.90;;;;;;4980774;28;20212;-69
2021/04/12 01:11:22;;;;;;;2.15;2.05;;;9.10;99.90;;;;;;4973381;28;20217;-71
2021/04/12 01:14:24;;;;;;;2.28;2.17;;;9.10;99.90;;;;;;4983577;28;22218;-68
2021/04/12 01:17:06;;;;;;;2.40;2.30;;;9.10;99.90;;;;;;4981064;28;20203;-67
2021/04/12 01:20:06;;;;;;;2.10;2.00;;;9.10;99.90;;;;;;4987287;28;20273;-69
2021/04/12 01:23:08;;;;;;;1.95;1.85;;;9.10;99.90;;;;;;4981653;28;20616;-70
2021/04/12 01:26:23;;;;;;;2.38;2.28;;;9.00;99.90;;;;;;4976541;28;20217;-68
2021/04/12 01:29:26;;;;;;;2.78;2.60;;;9.10;99.90;;;;;;4989026;28;20258;-67
2021/04/12 01:32:46;;;;;;;2.78;2.67;;;9.00;99.90;;;;;;4982576;28;20208;-71
2021/04/12 01:36:04;;;;;;;2.50;2.40;;;9.00;99.90;;;;;;4971951;28;20229;-71
2021/04/12 01:38:37;;;;;;;3.05;2.85;;;9.00;99.90;;;;;;4984188;28;20193;-68
2021/04/12 01:41:20;;;;;;;3.03;2.83;;;9.00;99.90;;;;;;4973835;28;20645;-68
2021/04/12 01:44:28;;;;;;;2.50;2.40;;;9.00;99.90;;;;;;4978525;28;20255;-68
2021/04/12 01:47:15;;;;;;;2.70;2.60;;;8.90;99.90;;;;;;4980597;28;20220;-68
2021/04/12 01:49:54;;;;;;;2.50;2.40;;;8.90;99.90;;;;;;4974770;28;20232;-69
2021/04/12 01:52:43;;;;;;;2.72;2.63;;;8.90;99.90;;;;;;4982647;28;20211;-68
2021/04/12 01:55:28;;;;;;;2.63;2.53;;;8.90;99.90;;;;;;4977810;28;20225;-68
2021/04/12 01:58:36;;;;;;;2.92;2.78;;;8.90;99.90;;;;;;4979118;28;20266;-68
2021/04/12 02:01:15;;;;;;;3.50;3.30;;;8.90;99.90;;;;;;4953984;28;20228;-68
2021/04/12 02:04:10;;;;;;;4.00;3.78;;;8.90;99.90;;;;;;4976800;28;20205;-70
2021/04/12 02:07:12;;;;;;;5.20;4.90;;;8.80;99.90;;;;;;4974545;28;20255;-68
2021/04/12 02:10:10;;;;;;;6.00;5.60;;;8.70;99.90;;;;;;4978514;28;20711;-69
2021/04/12 02:12:51;;;;;;;5.75;5.35;;;8.70;99.90;;;;;;4983578;28;20232;-69
2021/04/12 02:15:25;;;;;;;6.57;6.07;;;8.70;99.90;;;;;;4980919;28;20225;-67
2021/04/12 02:18:17;;;;;;;5.30;4.90;;;8.70;99.90;;;;;;4991001;28;20222;-69
2021/04/12 02:20:54;;;;;;;4.38;4.07;;;8.70;99.90;;;;;;4975290;28;20196;-68
2021/04/12 02:23:35;;;;;;;3.75;3.55;;;8.70;99.90;;;;;;4976714;28;20254;-67
2021/04/12 02:26:16;;;;;;;3.50;3.30;;;8.80;99.90;;;;;;4977394;28;20225;-70
2021/04/12 02:28:58;;;;;;;4.85;4.45;;;8.80;99.90;;;;;;4977655;28;20224;-67
2021/04/12 02:31:42;;;;;;;5.50;5.10;;;8.90;99.90;;;;;;4979958;28;20580;-68
2021/04/12 02:34:27;;;;;;;5.35;4.95;;;8.90;99.90;;;;;;4981965;28;20229;-70
2021/04/12 02:37:08;;;;;;;5.22;4.88;;;8.90;99.90;;;;;;4970505;28;20222;-69
2021/04/12 02:39:52;;;;;;;6.88;6.38;;;8.80;99.90;;;;;;4984537;28;20193;-69
2021/04/12 02:42:34;;;;;;;5.55;5.15;;;8.70;99.90;;;;;;4980299;28;20315;-70
2021/04/12 02:45:16;;;;;;;6.05;5.65;;;8.60;99.90;;;;;;4975516;28;20240;-68
2021/04/12 02:48:12;;;;;;;5.20;4.85;;;8.50;99.90;;;;;;4986529;28;20769;-68
2021/04/12 02:51:03;;;;;;;5.00;4.53;;;8.50;99.90;;;;;;4964123;28;20745;-69
2021/04/12 02:53:45;;;;;;;4.75;4.45;;;8.60;99.90;;;;;;4975924;28;20591;-69
2021/04/12 02:56:33;;;;;;;4.60;3.88;;;8.60;99.90;;;;;;4979795;28;22293;-68
2021/04/12 02:59:38;;;;;;;3.90;3.70;;;8.70;99.90;;;;;;4974471;28;20716;-69
2021/04/12 03:02:41;;;;;;;3.47;3.28;;;8.80;99.90;;;;;;5037250;28;20218;-69
2021/04/12 03:05:38;;;;;;;3.13;2.92;;;8.80;99.90;;;;;;4975624;28;20244;-69
2021/04/12 03:08:38;;;;;;;2.80;2.70;;;8.80;99.90;;;;;;4975517;28;20226;-69
2021/04/12 03:11:55;;;;;;;2.80;2.60;;;8.90;99.90;;;;;;4977558;28;20225;-69
2021/04/12 03:14:54;;;;;;;2.83;2.72;;;8.90;99.90;;;;;;4982397;28;20248;-69
2021/04/12 03:17:41;;;;;;;2.70;2.47;;;8.90;99.90;;;;;;4988086;28;20227;-68
2021/04/12 03:20:37;;;;;;;3.25;3.05;;;8.90;99.90;;;;;;4975958;28;20197;-68
2021/04/12 03:23:16;;;;;;;3.63;3.42;;;8.90;99.90;;;;;;4977933;28;20650;-68
2021/04/12 03:26:01;;;;;;;3.47;3.28;;;8.80;99.90;;;;;;4979889;28;20250;-67
2021/04/12 03:28:51;;;;;;;4.43;4.13;;;8.80;99.90;;;;;;4980321;28;20220;-69
2021/04/12 03:31:35;;;;;;;4.70;4.40;;;8.70;99.90;;;;;;4976119;28;20213;-68
2021/04/12 03:34:15;;;;;;;5.15;4.75;;;8.70;99.90;;;;;;4980663;28;20236;-68
2021/04/12 03:37:23;;;;;;;5.28;4.88;;;8.60;99.90;;;;;;4978484;28;20201;-68
2021/04/12 03:39:55;;;;;;;5.63;5.22;;;8.70;99.90;;;;;;4978166;28;20194;-69
2021/04/12 03:42:55;;;;;;;5.07;4.78;;;8.70;99.90;;;;;;4976433;28;20823;-69
2021/04/12 03:45:34;;;;;;;5.72;5.32;;;8.70;99.90;;;;;;4973756;28;20644;-68
2021/04/12 03:48:27;;;;;;;6.20;5.30;;;8.70;99.90;;;;;;4980772;28;20598;-68
2021/04/12 03:51:26;;;;;;;6.30;5.82;;;8.70;99.90;;;;;;4986035;28;20228;-68
2021/04/12 03:54:31;;;;;;;5.88;5.47;;;8.70;99.90;;;;;;4982572;28;20232;-69
2021/04/12 03:57:29;;;;;;;6.25;5.80;;;8.60;99.90;;;;;;4948740;28;20228;-69
2021/04/12 04:00:09;;;;;;;6.35;5.75;;;8.60;99.90;;;;;;5004350;28;20197;-69
2021/04/12 04:02:56;;;;;;;5.68;5.28;;;8.50;99.90;;;;;;4982414;28;20229;-68
2021/04/12 04:05:49;;;;;;;5.43;5.03;;;8.50;99.90;;;;;;4982499;28;20218;-68
2021/04/12 04:08:39;;;;;;;4.90;4.60;;;8.60;99.90;;;;;;4981185;28;20302;-67
2021/04/12 04:11:41;;;;;;;5.20;4.90;;;8.60;99.90;;;;;;4987541;28;20224;-68
2021/04/12 04:14:42;;;;;;;3.97;3.78;;;8.60;99.90;;;;;;4963602;28;20232;-68
2021/04/12 04:17:33;;;;;;;3.95;3.70;;;8.60;99.90;;;;;;4984484;28;20222;-68
2021/04/12 04:20:17;;;;;;;3.28;3.08;;;8.70;99.90;;;;;;4982767;28;20575;-68
2021/04/12 04:23:03;;;;;;;3.72;3.53;;;8.70;99.90;;;;;;4984491;28;20777;-68
2021/04/12 04:25:57;;;;;;;3.75;3.47;;;8.70;99.90;;;;;;4982808;28;20819;-68
2021/04/12 04:28:56;;;;;;;4.72;4.43;;;8.70;99.90;;;;;;4980059;28;20218;-67
2021/04/12 04:31:35;;;;;;;5.95;5.45;;;8.60;99.90;;;;;;4993961;28;20218;-68
2021/04/12 04:34:32;;;;;;;7.03;6.43;;;8.60;99.90;;;;;;4985582;28;20231;-68
2021/04/12 04:37:28;;;;;;;5.80;5.40;;;8.50;99.90;;;;;;4981275;28;20316;-68
2021/04/12 04:40:12;;;;;;;6.13;5.72;;;8.50;99.90;;;;;;4965637;28;20194;-68
2021/04/12 04:43:08;;;;;;;6.32;5.82;;;8.50;99.90;;;;;;4981226;28;20221;-70
2021/04/12 04:45:52;;;;;;;6.45;5.95;;;8.50;99.90;;;;;;4985009;28;20216;-68
2021/04/12 04:48:40;;;;;;;6.05;5.65;;;8.50;99.90;;;;;;4993772;28;20610;-69
2021/04/12 04:51:16;;;;;;;5.43;5.03;;;8.50;99.90;;;;;;4975524;28;20228;-68
2021/04/12 04:54:09;;;;;;;4.90;4.60;;;8.50;99.90;;;;;;4975567;28;20262;-69
2021/04/12 04:56:48;;;;;;;4.70;4.40;;;8.50;99.90;;;;;;4983809;28;20205;-70
2021/04/12 04:59:30;;;;;;;6.22;5.78;;;8.50;99.90;;;;;;4978058;28;20245;-68
2021/04/12 05:02:28;;;;;;;7.22;6.72;;;8.50;99.90;;;;;;4980119;28;20599;-68
2021/04/12 05:05:25;;;;;;;6.57;6.18;;;8.50;99.90;;;;;;4959429;28;20218;-68
2021/04/12 05:08:23;;;;;;;7.15;6.65;;;8.50;99.90;;;;;;4984087;28;20536;-68
2021/04/12 05:11:04;;;;;;;7.05;6.50;;;8.60;99.90;;;;;;4980818;28;20236;-69
2021/04/12 05:14:03;;;;;;;6.22;5.78;;;8.60;99.90;;;;;;4973493;28;20223;-67
2021/04/12 05:16:46;;;;;;;5.45;5.05;;;8.60;99.90;;;;;;4976472;28;20252;-69
2021/04/12 05:19:38;;;;;;;4.95;4.65;;;8.70;99.90;;;;;;4975797;28;20222;-69
2021/04/12 05:22:38;;;;;;;4.00;3.80;;;8.70;99.90;;;;;;4975853;28;20237;-68
2021/04/12 05:25:32;;;;;;;3.83;3.63;;;8.80;99.90;;;;;;4980828;28;20241;-68
2021/04/12 05:28:28;;;;;;;4.63;4.32;;;8.80;99.90;;;;;;4983718;28;20228;-68
2021/04/12 05:31:15;;;;;;;5.55;5.15;;;9.20;99.90;;;;;;4983317;28;20217;-66
2021/04/12 05:34:18;;;;;;;5.18;4.78;;;9.30;99.90;;;;;;4982056;28;20217;-68
2021/04/12 05:36:57;;;;;;;6.05;5.65;;;9.30;99.90;;;;;;4982067;28;20258;-74
2021/04/12 05:40:04;;;;;;;5.70;5.30;;;9.10;99.90;;;;;;4990043;28;20224;-71
2021/04/12 05:42:43;;;;;;;5.53;5.13;;;9.00;99.90;;;;;;4976578;28;20221;-73
2021/04/12 05:45:44;;;;;;;6.00;5.50;;;8.90;99.90;;;;;;4976227;28;20221;-73
2021/04/12 05:48:34;;;;;;;5.55;5.15;;;8.90;99.90;;;;;;4978392;28;20224;-68
2021/04/12 05:51:28;;;;;;;5.10;4.57;;;8.90;99.90;;;;;;4979084;28;20217;-68
2021/04/12 05:54:30;;;;;;;4.50;4.20;;;8.90;99.90;;;;;;4980127;28;20702;-67
2021/04/12 05:57:16;;;;;;;4.70;4.40;;;8.90;99.90;;;;;;4978896;28;20197;-67
2021/04/12 06:00:10;;;;;;;5.65;5.15;;;8.90;99.90;;;;;;4973403;28;20221;-67
2021/04/12 06:02:55;;;;;;;5.53;5.13;;;8.90;99.90;;;;;;4974203;28;20232;-69
2021/04/12 06:05:28;;;;;;;6.72;5.50;;;8.90;99.90;;;;;;4976537;28;20220;-68
2021/04/12 06:08:27;;;;;;;6.10;5.68;;;8.80;99.90;;;;;;4975092;28;20228;-68
2021/04/12 06:11:27;;;;;;;6.70;6.30;;;8.70;99.90;;;;;;4979410;28;20858;-70
2021/04/12 06:14:32;;;;;;;7.32;6.82;;;8.60;99.90;;;;;;4986535;28;20243;-68
2021/04/12 06:17:26;;;;;;;8.20;7.57;;;8.50;99.90;;;;;;4996966;28;20208;-67
2021/04/12 06:20:37;;;;;;;6.50;6.00;;;8.40;99.90;;;;;;4986175;28;20713;-68
2021/04/12 06:23:36;;;;;;;6.53;6.03;;;8.40;99.90;;;;;;4977111;28;20359;-69
2021/04/12 06:26:41;;;;;;;6.28;5.68;;;8.40;99.90;;;;;;5017470;22;20718;-76
2021/04/12 06:29:19;;;;;;;7.10;6.50;;;8.40;99.90;;;;;;5073927;28;20266;-76
2021/04/12 06:32:17;;;;;;;6.57;6.07;;;8.40;99.90;;;;;;5060289;28;20198;-74
2021/04/12 06:35:02;;;;;;;7.68;7.07;;;8.40;99.90;;;;;;5066450;28;20213;-76
2021/04/12 06:38:14;;;;;;;5.80;5.40;;;8.50;99.90;;;;;;5062457;28;20221;-75
2021/04/12 06:41:32;;;;;;;5.72;5.32;;;8.60;99.90;;;;;;5033833;28;20210;-76
2021/04/12 06:44:41;;;;;;;4.95;4.65;;;8.80;99.90;;;;;;5059318;28;20202;-75
2021/04/12 06:47:24;;;;;;;3.83;3.63;;;8.90;99.90;;;;;;5054448;28;20210;-75
2021/04/12 06:50:24;;;;;;;4.47;4.05;;;9.10;99.90;;;;;;5055074;28;20228;-76
2021/04/12 06:53:28;;;;;;;4.47;4.07;;;9.20;99.90;;;;;;5056444;28;20841;-75
2021/04/12 06:56:45;;;;;;;4.32;4.03;;;9.20;99.90;;;;;;5053799;28;20257;-75
2021/04/12 06:59:41;;;;;;;242.27;18.58;;;9.30;99.90;;;;;;5054718;28;20240;-75
2021/04/12 07:02:36;;;;;;;9.30;8.55;;;9.30;99.90;;;;;;5054792;28;20198;-75
2021/04/12 07:05:27;;;;;;;10.75;9.05;;;9.20;99.90;;;;;;5055894;28;20225;-75
2021/04/12 07:08:22;;;;;;;7.97;7.38;;;9.20;99.90;;;;;;5039790;28;20266;-75
2021/04/12 07:11:34;;;;;;;7.55;6.95;;;9.20;99.90;;;;;;5055541;28;20271;-76
2021/04/12 07:14:55;;;;;;;8.32;7.72;;;9.20;99.90;;;;;;5057614;28;20209;-76
2021/04/12 07:17:54;;;;;;;8.82;8.13;;;9.20;99.90;;;;;;5055789;28;20538;-75
2021/04/12 07:20:52;;;;;;;7.55;6.95;;;9.30;99.90;;;;;;5056843;28;20244;-75
2021/04/12 07:23:50;;;;;;;8.68;7.90;;;9.30;99.90;;;;;;5046707;28;20441;-74
2021/04/12 07:26:46;;;;;;;9.23;8.43;;;9.40;99.90;;;;;;5054302;28;20229;-75
2021/04/12 07:29:57;;;;;;;8.15;7.55;;;9.40;99.90;;;;;;5028448;28;20571;-74
2021/04/12 07:33:09;;;;;;;7.60;7.10;;;9.50;99.90;;;;;;5056108;28;20195;-75
2021/04/12 07:36:02;;;;;;;42.55;10.55;;;9.50;99.90;;;;;;5051352;28;20247;-76
2021/04/12 07:39:11;;;;;;;9.52;8.82;;;9.50;99.90;;;;;;5053370;28;20663;-75
2021/04/12 07:42:20;;;;;;;8.88;8.18;;;9.50;99.90;;;;;;5039470;28;20241;-75
2021/04/12 07:45:43;;;;;;;8.77;7.68;;;9.50;99.90;;;;;;5035132;28;20219;-75
2021/04/12 07:48:44;;;;;;;8.45;7.82;;;9.40;99.90;;;;;;5035940;28;20897;-74
2021/04/12 07:51:43;;;;;;;12.48;9.20;;;9.50;99.90;;;;;;5037453;28;20634;-75
2021/04/12 07:54:46;;;;;;;9.15;8.48;;;9.60;99.90;;;;;;5005963;28;20202;-75
2021/04/12 07:57:42;;;;;;;9.35;8.63;;;9.70;99.90;;;;;;5059006;28;20251;-74
2021/04/12 08:00:39;;;;;;;29.15;11.75;;;9.90;99.90;;;;;;5057149;28;20199;-74
2021/04/12 08:03:54;;;;;;;172.45;14.80;;;10.00;99.90;;;;;;5039231;28;20540;-76
2021/04/12 08:07:08;;;;;;;11.23;10.35;;;10.10;99.90;;;;;;5041456;28;20763;-74
2021/04/12 08:10:13;;;;;;;102.80;15.05;;;10.10;99.90;;;;;;5042316;28;20240;-75
2021/04/12 08:13:12;;;;;;;24.13;10.98;;;10.10;99.90;;;;;;5019044;28;20251;-76
2021/04/12 08:16:32;;;;;;;11.13;10.23;;;9.90;99.90;;;;;;5064321;28;20798;-75
2021/04/12 08:19:36;;;;;;;10.48;9.68;;;9.80;99.90;;;;;;5063164;28;20704;-75
2021/04/12 08:22:46;;;;;;;10.70;9.90;;;9.70;99.90;;;;;;5000387;28;20780;-75
2021/04/12 08:26:04;;;;;;;9.38;8.57;;;9.60;99.90;;;;;;5063369;28;20250;-76
2021/04/12 08:29:02;;;;;;;10.48;9.68;;;9.60;99.90;;;;;;5039972;28;20214;-75
2021/04/12 08:32:07;;;;;;;10.55;9.65;;;9.50;99.90;;;;;;5043014;28;20215;-76
2021/04/12 08:35:03;;;;;;;10.18;9.38;;;9.60;99.90;;;;;;5045263;28;20222;-76
2021/04/12 08:38:08;;;;;;;8.95;8.25;;;9.60;99.90;;;;;;5040685;28;20222;-75
2021/04/12 08:41:05;;;;;;;8.60;8.00;;;9.60;99.90;;;;;;5051940;28;20287;-75
2021/04/12 08:43:52;;;;;;;7.85;7.25;;;9.90;99.90;;;;;;5056939;28;20194;-76
2021/04/12 08:46:43;;;;;;;7.47;6.97;;;10.10;99.90;;;;;;5055319;28;20652;-75
2021/04/12 08:49:32;;;;;;;7.00;6.45;;;10.20;99.90;;;;;;5061840;28;20193;-76
2021/04/12 08:52:30;;;;;;;6.75;6.25;;;10.30;99.90;;;;;;5061066;28;20256;-76
2021/04/12 08:55:30;;;;;;;6.40;5.97;;;10.40;99.90;;;;;;5056391;28;20233;-75
2021/04/12 08:58:35;;;;;;;5.18;4.78;;;10.50;99.90;;;;;;5058645;28;20194;-75
2021/04/12 09:01:58;;;;;;;4.55;4.25;;;10.60;99.90;;;;;;5010796;28;20217;-76
2021/04/12 09:04:59;;;;;;;4.93;4.63;;;10.60;99.90;;;;;;5062477;28;20593;-76
2021/04/12 09:08:12;;;;;;;4.80;4.50;;;10.60;99.90;;;;;;5058457;28;20304;-77
2021/04/12 09:11:18;;;;;;;5.07;4.78;;;10.50;99.90;;;;;;5064159;28;20471;-76
2021/04/12 09:14:08;;;;;;;4.32;4.03;;;10.50;99.90;;;;;;5059654;28;20190;-76
2021/04/12 09:17:14;;;;;;;5.30;4.90;;;10.50;99.90;;;;;;5056164;28;20228;-76
2021/04/12 09:20:02;;;;;;;4.68;4.38;;;10.40;99.90;;;;;;5055629;28;20202;-75
2021/04/12 09:23:15;;;;;;;5.35;4.95;;;10.50;99.90;;;;;;5056863;28;20853;-75
2021/04/12 09:26:22;;;;;;;5.78;5.38;;;10.60;99.90;;;;;;5063269;28;20194;-76
2021/04/12 09:29:25;;;;;;;5.97;5.57;;;10.60;99.90;;;;;;5063307;28;20361;-75
2021/04/12 09:32:27;;;;;;;6.30;5.80;;;10.50;99.90;;;;;;5062225;28;20462;-75
2021/04/12 09:35:16;;;;;;;6.55;5.93;;;10.60;99.90;;;;;;5061820;28;20575;-74
2021/04/12 09:38:02;;;;;;;6.68;6.18;;;10.70;99.90;;;;;;5059344;28;20675;-75
2021/04/12 09:41:07;;;;;;;6.40;5.90;;;10.70;99.90;;;;;;5061270;28;20190;-75
2021/04/12 09:43:54;;;;;;;6.20;5.70;;;10.70;99.90;;;;;;5059298;28;20209;-73
2021/04/12 09:47:03;;;;;;;6.65;6.15;;;10.70;99.90;;;;;;5062597;28;21604;-75
2021/04/12 09:50:14;;;;;;;6.88;6.38;;;10.80;99.90;;;;;;5059146;28;20202;-75
2021/04/12 09:52:54;;;;;;;5.82;5.40;;;10.90;99.90;;;;;;5062837;28;20801;-75
2021/04/12 09:56:11;;;;;;;6.15;5.75;;;11.00;99.90;;;;;;5065714;28;20509;-76
2021/04/12 09:59:19;;;;;;;6.97;6.47;;;11.00;99.90;;;;;;5058234;28;20233;-75
2021/04/12 10:02:26;;;;;;;6.70;6.20;;;11.00;99.90;;;;;;5058952;28;20202;-75
2021/04/12 10:05:18;;;;;;;6.10;5.70;;;11.00;99.90;;;;;;5027818;28;20568;-75
2021/04/12 10:08:11;;;;;;;6.40;5.95;;;11.00;99.90;;;;;;5060285;28;20225;-75
2021/04/12 10:11:00;;;;;;;5.88;5.47;;;11.10;99.90;;;;;;5060202;28;20221;-75
2021/04/12 10:13:42;;;;;;;7.70;7.10;;;11.20;99.90;;;;;;5059065;28;20194;-75
2021/04/12 10:16:21;;;;;;;6.93;6.43;;;11.30;99.90;;;;;;5063606;28;20218;-76
2021/04/12 10:19:00;;;;;;;6.50;6.03;;;11.30;99.90;;;;;;5059592;28;20217;-76
2021/04/12 10:21:35;;;;;;;6.40;5.90;;;11.40;99.90;;;;;;5060484;28;20201;-74
2021/04/12 10:24:08;;;;;;;5.95;5.45;;;11.40;99.90;;;;;;5059054;28;20221;-75
2021/04/12 10:26:41;;;;;;;6.38;5.93;;;11.40;99.90;;;;;;5061554;28;20226;-74
2021/04/12 10:29:15;;;;;;;6.43;5.93;;;11.40;99.90;;;;;;5059588;28;20217;-75
2021/04/12 10:31:49;;;;;;;6.03;5.63;;;11.40;99.90;;;;;;5057507;28;20211;-75
2021/04/12 10:34:24;;;;;;;6.05;5.65;;;11.40;99.90;;;;;;5059812;28;20230;-75
2021/04/12 10:37:06;;;;;;;5.68;5.28;;;11.50;99.90;;;;;;5062350;28;20233;-76
2021/04/12 10:39:40;;;;;;;5.38;5.07;;;11.60;99.90;;;;;;5060252;28;20218;-75
2021/04/12 10:42:21;;;;;;;5.80;5.40;;;11.70;99.90;;;;;;5060516;28;20201;-75
2021/04/12 10:45:00;;;;;;;5.22;4.85;;;11.90;99.90;;;;;;5061289;28;20214;-75
2021/04/12 10:47:34;;;;;;;4.60;4.30;;;12.10;99.90;;;;;;5062680;28;20702;-75
2021/04/12 10:50:13;;;;;;;5.68;5.28;;;12.20;99.90;;;;;;5058249;28;20308;-73
2021/04/12 10:52:59;;;;;;;5.22;4.93;;;12.40;99.90;;;;;;5061137;28;20186;-75
2021/04/12 10:55:32;;;;;;;5.80;5.40;;;12.70;99.90;;;;;;5054707;28;20233;-75
2021/04/12 10:58:23;;;;;;;5.93;5.53;;;12.70;99.90;;;;;;5058076;28;20189;-75
2021/04/12 11:01:04;;;;;;;7.07;6.55;;;12.70;99.90;;;;;;5057879;28;20653;-75
2021/04/12 11:03:45;;;;;;;6.80;6.30;;;12.60;99.90;;;;;;5066368;28;21744;-74
2021/04/12 11:06:56;;;;;;;6.50;5.95;;;12.50;99.90;;;;;;5057611;28;20214;-75
2021/04/12 11:09:55;;;;;;;6.65;5.75;;;12.50;99.90;;;;;;5052707;28;20236;-75
2021/04/12 11:12:54;;;;;;;6.60;6.07;;;12.40;99.90;;;;;;5055858;28;20619;-74
2021/04/12 11:15:49;;;;;;;6.25;5.78;;;12.30;99.90;;;;;;5027700;28;20659;-74
2021/04/12 11:18:25;;;;;;;6.05;5.65;;;12.30;99.90;;;;;;5055163;28;20203;-76
2021/04/12 11:20:59;;;;;;;6.85;6.35;;;12.30;99.90;;;;;;5057158;28;20439;-75
2021/04/12 11:23:32;;;;;;;5.82;5.43;;;12.40;99.90;;;;;;5056984;28;20406;-75
2021/04/12 11:26:05;;;;;;;6.00;5.60;;;12.50;99.90;;;;;;5034100;28;20720;-74
2021/04/12 11:28:47;;;;;;;5.65;5.25;;;12.50;99.90;;;;;;5037637;28;20203;-76
2021/04/12 11:31:31;;;;;;;6.07;5.68;;;12.50;99.90;;;;;;5046418;28;20214;-75
2021/04/12 11:34:07;;;;;;;6.00;5.60;;;12.50;99.90;;;;;;5034591;28;20217;-76
2021/04/12 11:36:56;;;;;;;7.03;6.40;;;12.50;99.90;;;;;;5041551;28;20397;-76
2021/04/12 11:39:27;;;;;;;6.00;5.47;;;12.50;99.90;;;;;;5040351;28;20191;-75
2021/04/12 11:41:58;;;;;;;5.65;5.25;;;12.60;99.90;;;;;;5042671;28;20222;-76
2021/04/12 11:44:31;;;;;;;6.15;5.75;;;12.60;99.90;;;;;;5040430;28;20597;-76
2021/04/12 11:47:39;;;;;;;6.45;5.95;;;12.60;99.90;;;;;;5055954;28;20786;-75
2021/04/12 11:50:17;;;;;;;5.25;4.85;;;12.50;99.90;;;;;;5062764;28;20198;-74
2021/04/12 11:52:56;;;;;;;6.10;5.70;;;12.50;99.90;;;;;;5060124;28;20218;-75
2021/04/12 11:55:34;;;;;;;5.22;4.93;;;12.40;99.90;;;;;;5059079;28;20209;-75
2021/04/12 11:58:16;;;;;;;6.35;5.90;;;12.30;99.90;;;;;;5058277;28;20296;-76
2021/04/12 12:01:00;;;;;;;5.63;5.22;;;12.10;99.90;;;;;;5057287;28;20221;-75
2021/04/12 12:04:02;;;;;;;5.03;4.72;;;11.90;99.90;;;;;;5056078;28;20663;-76
2021/04/12 12:06:39;;;;;;;5.57;5.18;;;11.80;99.90;;;;;;5030412;28;20222;-75
2021/04/12 12:09:15;;;;;;;6.03;5.63;;;11.80;99.90;;;;;;5058516;28;20672;-76
2021/04/12 12:11:48;;;;;;;5.45;5.05;;;11.60;99.90;;;;;;5061182;28;20358;-75
2021/04/12 12:14:25;;;;;;;5.05;4.68;;;11.60;99.90;;;;;;5053604;28;20206;-74
2021/04/12 12:16:56;;;;;;;4.93;4.63;;;11.70;99.90;;;;;;5056403;28;20218;-74
2021/04/12 12:19:36;;;;;;;4.80;4.50;;;11.60;99.90;;;;;;5062022;28;20195;-74
2021/04/12 12:22:09;;;;;;;5.97;5.47;;;11.60;99.90;;;;;;5062791;28;20232;-75
2021/04/12 12:24:43;;;;;;;5.10;4.80;;;11.60;99.90;;;;;;5059790;28;20674;-74
2021/04/12 12:27:15;;;;;;;5.57;5.18;;;11.50;99.90;;;;;;5096257;22;20229;-73
2021/04/12 12:29:45;;;;;;;5.13;4.82;;;11.50;99.90;;;;;;5038216;28;20203;-70
2021/04/12 12:32:45;;;;;;;5.20;4.90;;;11.50;99.90;;;;;;5021068;28;20223;-71
2021/04/12 12:35:51;;;;;;;4.80;4.50;;;11.50;99.90;;;;;;5016284;28;20204;-71
2021/04/12 12:38:30;;;;;;;5.63;5.15;;;11.60;99.90;;;;;;5057444;28;20218;-71
2021/04/12 12:41:00;;;;;;;5.03;4.72;;;11.60;99.90;;;;;;5056924;28;20186;-71
2021/04/12 12:43:30;;;;;;;5.28;4.85;;;11.60;99.90;;;;;;5058040;28;20244;-73
2021/04/12 12:46:06;;;;;;;4.97;4.68;;;11.50;99.90;;;;;;5060442;28;20206;-73
2021/04/12 12:48:36;;;;;;;5.00;4.70;;;11.40;99.90;;;;;;5062754;28;20217;-70
2021/04/12 12:51:11;;;;;;;4.50;4.20;;;11.50;99.90;;;;;;5059357;28;20218;-68
2021/04/12 12:53:43;;;;;;;4.72;4.43;;;11.70;99.90;;;;;;5062447;28;20244;-69
2021/04/12 12:56:21;;;;;;;4.82;4.53;;;11.80;99.90;;;;;;5066033;28;20221;-68
2021/04/12 12:59:00;;;;;;;4.65;4.35;;;11.90;99.90;;;;;;5061439;28;20502;-68
2021/04/12 13:01:30;;;;;;;5.45;5.05;;;12.10;99.90;;;;;;5058498;28;20194;-70
2021/04/12 13:04:10;;;;;;;5.18;4.78;;;12.20;99.90;;;;;;5057337;28;20268;-70
2021/04/12 13:06:36;;;;;;;5.10;4.70;;;12.20;99.90;;;;;;5061155;28;20530;-70
2021/04/12 13:09:15;;;;;;;6.75;6.22;;;12.20;99.90;;;;;;5058563;28;20198;-70
2021/04/12 13:11:44;;;;;;;5.57;5.07;;;12.10;99.90;;;;;;5056376;28;20303;-70
2021/04/12 13:14:27;;;;;;;6.20;5.80;;;12.10;99.90;;;;;;5063683;28;20210;-68
2021/04/12 13:16:54;;;;;;;7.43;6.93;;;12.00;99.90;;;;;;5059603;28;20214;-68
2021/04/12 13:19:22;;;;;;;6.45;6.03;;;11.80;99.90;;;;;;5058903;28;20213;-70
2021/04/12 13:21:53;;;;;;;6.00;5.60;;;11.60;99.90;;;;;;5054636;28;20975;-70
2021/04/12 13:24:33;;;;;;;5.35;4.95;;;11.60;99.90;;;;;;5042902;28;20214;-72
2021/04/12 13:27:04;;;;;;;6.38;5.90;;;11.50;99.90;;;;;;5062119;28;20304;-71
2021/04/12 13:29:36;;;;;;;5.63;5.28;;;11.40;99.90;;;;;;5056632;28;20190;-72
2021/04/12 13:32:12;;;;;;;5.20;4.90;;;11.40;99.90;;;;;;5055685;28;20230;-70
2021/04/12 13:34:43;;;;;;;7.03;6.53;;;11.30;99.90;;;;;;5057877;28;20789;-70
2021/04/12 13:37:16;;;;;;;6.75;6.18;;;11.20;99.90;;;;;;5063012;28;20770;-70
2021/04/12 13:39:45;;;;;;;7.07;6.57;;;11.10;99.90;;;;;;5052862;28;20696;-71
2021/04/12 13:42:24;;;;;;;7.05;6.53;;;11.10;99.90;;;;;;5058021;28;20225;-71
2021/04/12 13:44:54;;;;;;;10.18;9.27;;;11.00;99.90;;;;;;5054348;28;20198;-71
2021/04/12 13:47:31;;;;;;;15.20;13.48;;;10.90;99.90;;;;;;5055576;28;20226;-71
2021/04/12 13:50:09;;;;;;;10.85;9.93;;;10.80;99.90;;;;;;5059636;28;20595;-72
2021/04/12 13:52:44;;;;;;;7.22;6.57;;;10.60;99.90;;;;;;5057102;28;20217;-70
2021/04/12 13:55:14;;;;;;;4.57;4.18;;;10.40;99.90;;;;;;5058585;28;20331;-73
2021/04/12 13:57:45;;;;;;;2.78;2.58;;;10.10;99.90;;;;;;5059693;28;20222;-71
2021/04/12 14:00:21;;;;;;;1.92;1.83;;;9.90;99.90;;;;;;5065386;28;20292;-71
2021/04/12 14:03:03;;;;;;;21.45;15.40;;;9.70;99.90;;;;;;5058330;28;20275;-72
2021/04/12 14:05:33;;;;;;;10.85;8.48;;;9.50;99.90;;;;;;5054459;28;20210;-70
2021/04/12 14:08:13;;;;;;;4.28;3.88;;;9.40;99.90;;;;;;5063833;28;20230;-70
2021/04/12 14:10:51;;;;;;;2.50;2.30;;;9.30;99.90;;;;;;5067289;28;20222;-70
2021/04/12 14:13:22;;;;;;;2.42;2.22;;;9.20;99.90;;;;;;5060688;28;20231;-71
2021/04/12 14:15:59;;;;;;;1.67;1.58;;;9.20;99.90;;;;;;5059770;28;20220;-71
2021/04/12 14:18:36;;;;;;;1.85;1.67;;;9.20;99.90;;;;;;5055325;28;20218;-72
2021/04/12 14:21:07;;;;;;;1.48;1.45;;;9.10;99.90;;;;;;5064460;28;20198;-72
2021/04/12 14:23:40;;;;;;;1.90;1.80;;;9.10;99.90;;;;;;5055065;28;20211;-72
2021/04/12 14:26:11;;;;;;;1.80;1.75;;;9.00;99.90;;;;;;5060665;28;20194;-71
2021/04/12 14:28:43;;;;;;;2.08;1.98;;;9.00;99.90;;;;;;5053302;28;20280;-71
2021/04/12 14:31:21;;;;;;;1.75;1.65;;;8.90;99.90;;;;;;5055636;28;20563;-71
2021/04/12 14:33:50;;;;;;;2.15;2.05;;;8.90;99.90;;;;;;5064367;28;21109;-71
2021/04/12 14:36:24;;;;;;;1.90;1.80;;;8.80;99.90;;;;;;5058067;28;20198;-71
2021/04/12 14:38:53;;;;;;;1.80;1.70;;;8.70;99.90;;;;;;5062644;28;20222;-73
2021/04/12 14:41:24;;;;;;;1.88;1.77;;;8.60;99.90;;;;;;5058802;28;20384;-71
2021/04/12 14:43:57;;;;;;;1.70;1.60;;;8.40;99.90;;;;;;5067323;28;20275;-70